sensor_id;sensor_type;location;lat;lon;timestamp;temperature;humidity
11055;DHT22;5580;50.106;8.702;2022-10-13T00:01:46;12.80;99.90
11055;DHT22;5580;50.106;8.702;2022-10-13T00:04:11;12.80;99.90
11055;DHT22;5580;50.106;8.702;2022-10-13T00:06:37;12.80;99.90
11055;DHT22;5580;50.106;8.702;2022-10-13T00:09:03;12.80;99.90
11055;DHT22;5580;50.106;8.702;2022-10-13T00:11:29;12.70;99.90
11055;DHT22;5580;50.106;8.702;2022-10-13T00:13:56;12.70;99.90
11055;DHT22;5580;50.106;8.702;2022-10-13T00:16:23;12.70;99.90
11055;DHT22;5580;50.106;8.702;2022-10-13T00:18:49;12.70;99.90
11055;DHT22;5580;50.106;8.702;2022-10-13T00:21:20;12.70;99.90
11055;DHT22;5580;50.106;8.702;2022-10-13T00:23:46;12.60;99.90
11055;DHT22;5580;50.106;8.702;2022-10-13T00:26:13;12.60;99.90
11055;DHT22;5580;50.106;8.702;2022-10-13T00:28:39;12.60;99.90
11055;DHT22;5580;50.106;8.702;2022-10-13T00:33:48;12.70;99.90
11055;DHT22;5580;50.106;8.702;2022-10-13T00:36:14;12.70;99.90
11055;DHT22;5580;50.106;8.702;2022-10-13T00:38:40;12.70;99.90
11055;DHT22;5580;50.106;8.702;2022-10-13T00:41:06;12.70;99.90
11055;DHT22;5580;50.106;8.702;2022-10-13T00:46:20;12.80;99.90
11055;DHT22;5580;50.106;8.702;2022-10-13T00:48:46;12.80;99.90
11055;DHT22;5580;50.106;8.702;2022-10-13T00:51:15;12.80;99.90
11055;DHT22;5580;50.106;8.702;2022-10-13T00:53:43;12.80;99.90
11055;DHT22;5580;50.106;8.702;2022-10-13T00:56:11;12.80;99.90
11055;DHT22;5580;50.106;8.702;2022-10-13T00:58:38;12.80;99.90
11055;DHT22;5580;50.106;8.702;2022-10-13T01:01:05;12.80;99.90
11055;DHT22;5580;50.106;8.702;2022-10-13T01:03:31;12.70;99.90
11055;DHT22;5580;50.106;8.702;2022-10-13T01:06:00;12.70;99.90
11055;DHT22;5580;50.106;8.702;2022-10-13T01:08:28;12.70;99.90
11055;DHT22;5580;50.106;8.702;2022-10-13T01:11:17;12.70;99.90
11055;DHT22;5580;50.106;8.702;2022-10-13T01:20:08;12.60;99.90
11055;DHT22;5580;50.106;8.702;2022-10-13T01:30:57;12.50;99.90
11055;DHT22;5580;50.106;8.702;2022-10-13T01:33:44;12.50;99.90
11055;DHT22;5580;50.106;8.702;2022-10-13T01:39:08;12.50;99.90
11055;DHT22;5580;50.106;8.702;2022-10-13T01:41:37;12.50;99.90
11055;DHT22;5580;50.106;8.702;2022-10-13T01:44:19;12.50;99.90
11055;DHT22;5580;50.106;8.702;2022-10-13T01:46:47;12.60;99.90
11055;DHT22;5580;50.106;8.702;2022-10-13T01:49:16;12.50;99.90
11055;DHT22;5580;50.106;8.702;2022-10-13T01:51:43;12.60;99.90
11055;DHT22;5580;50.106;8.702;2022-10-13T01:54:10;12.60;99.90
11055;DHT22;5580;50.106;8.702;2022-10-13T01:56:35;12.60;99.90
11055;DHT22;5580;50.106;8.702;2022-10-13T01:59:06;12.60;99.90
11055;DHT22;5580;50.106;8.702;2022-10-13T02:09:59;12.60;99.90
11055;DHT22;5580;50.106;8.702;2022-10-13T02:12:44;12.70;99.90
11055;DHT22;5580;50.106;8.702;2022-10-13T02:15:13;12.70;99.90
11055;DHT22;5580;50.106;8.702;2022-10-13T02:17:41;12.70;99.90
11055;DHT22;5580;50.106;8.702;2022-10-13T02:20:07;12.60;99.90
11055;DHT22;5580;50.106;8.702;2022-10-13T02:22:37;12.60;99.90
11055;DHT22;5580;50.106;8.702;2022-10-13T02:25:05;12.60;99.90
11055;DHT22;5580;50.106;8.702;2022-10-13T02:27:32;12.60;99.90
11055;DHT22;5580;50.106;8.702;2022-10-13T02:29:57;12.60;99.90
11055;DHT22;5580;50.106;8.702;2022-10-13T02:32:23;12.60;99.90
11055;DHT22;5580;50.106;8.702;2022-10-13T02:34:49;12.60;99.90
11055;DHT22;5580;50.106;8.702;2022-10-13T02:37:15;12.60;99.90
11055;DHT22;5580;50.106;8.702;2022-10-13T02:39:41;12.60;99.90
11055;DHT22;5580;50.106;8.702;2022-10-13T02:42:06;12.50;99.90
11055;DHT22;5580;50.106;8.702;2022-10-13T02:44:32;12.50;99.90
11055;DHT22;5580;50.106;8.702;2022-10-13T02:46:57;12.50;99.90
11055;DHT22;5580;50.106;8.702;2022-10-13T02:49:23;12.50;99.90
11055;DHT22;5580;50.106;8.702;2022-10-13T02:51:49;12.50;99.90
11055;DHT22;5580;50.106;8.702;2022-10-13T02:54:14;12.50;99.90
11055;DHT22;5580;50.106;8.702;2022-10-13T02:56:40;12.50;99.90
11055;DHT22;5580;50.106;8.702;2022-10-13T02:59:05;12.40;99.90
11055;DHT22;5580;50.106;8.702;2022-10-13T03:01:31;12.50;99.90
11055;DHT22;5580;50.106;8.702;2022-10-13T03:03:57;12.50;99.90
11055;DHT22;5580;50.106;8.702;2022-10-13T03:06:23;12.50;99.90
11055;DHT22;5580;50.106;8.702;2022-10-13T03:08:49;12.50;99.90
11055;DHT22;5580;50.106;8.702;2022-10-13T03:11:15;12.40;99.90
11055;DHT22;5580;50.106;8.702;2022-10-13T03:13:40;12.40;99.90
11055;DHT22;5580;50.106;8.702;2022-10-13T03:16:06;12.40;99.90
11055;DHT22;5580;50.106;8.702;2022-10-13T03:18:32;12.50;99.90
11055;DHT22;5580;50.106;8.702;2022-10-13T03:21:03;12.50;99.90
11055;DHT22;5580;50.106;8.702;2022-10-13T03:23:30;12.50;99.90
11055;DHT22;5580;50.106;8.702;2022-10-13T03:25:56;12.50;99.90
11055;DHT22;5580;50.106;8.702;2022-10-13T03:28:21;12.40;99.90
11055;DHT22;5580;50.106;8.702;2022-10-13T03:30:47;12.40;99.90
11055;DHT22;5580;50.106;8.702;2022-10-13T03:33:13;12.40;99.90
11055;DHT22;5580;50.106;8.702;2022-10-13T03:35:38;12.40;99.90
11055;DHT22;5580;50.106;8.702;2022-10-13T03:38:04;12.40;99.90
11055;DHT22;5580;50.106;8.702;2022-10-13T03:40:34;12.40;99.90
11055;DHT22;5580;50.106;8.702;2022-10-13T03:43:00;12.40;99.90
11055;DHT22;5580;50.106;8.702;2022-10-13T03:45:26;12.30;99.90
11055;DHT22;5580;50.106;8.702;2022-10-13T03:47:51;12.30;99.90
11055;DHT22;5580;50.106;8.702;2022-10-13T03:50:17;12.30;99.90
11055;DHT22;5580;50.106;8.702;2022-10-13T03:52:43;12.30;99.90
11055;DHT22;5580;50.106;8.702;2022-10-13T03:55:08;12.30;99.90
11055;DHT22;5580;50.106;8.702;2022-10-13T03:57:34;12.30;99.90
11055;DHT22;5580;50.106;8.702;2022-10-13T03:59:59;12.30;99.90
11055;DHT22;5580;50.106;8.702;2022-10-13T04:02:25;12.30;99.90
11055;DHT22;5580;50.106;8.702;2022-10-13T04:04:51;12.20;99.90
11055;DHT22;5580;50.106;8.702;2022-10-13T04:07:17;12.20;99.90
11055;DHT22;5580;50.106;8.702;2022-10-13T04:09:42;12.30;99.90
11055;DHT22;5580;50.106;8.702;2022-10-13T04:12:08;12.30;99.90
11055;DHT22;5580;50.106;8.702;2022-10-13T04:14:33;12.30;99.90
11055;DHT22;5580;50.106;8.702;2022-10-13T04:16:59;12.30;99.90
11055;DHT22;5580;50.106;8.702;2022-10-13T04:19:24;12.30;99.90
11055;DHT22;5580;50.106;8.702;2022-10-13T04:21:50;12.30;99.90
11055;DHT22;5580;50.106;8.702;2022-10-13T04:24:16;12.30;99.90
11055;DHT22;5580;50.106;8.702;2022-10-13T04:26:43;12.30;99.90
11055;DHT22;5580;50.106;8.702;2022-10-13T04:29:10;12.30;99.90
11055;DHT22;5580;50.106;8.702;2022-10-13T04:31:37;12.30;99.90
11055;DHT22;5580;50.106;8.702;2022-10-13T04:34:03;12.30;99.90
11055;DHT22;5580;50.106;8.702;2022-10-13T04:36:29;12.30;99.90
11055;DHT22;5580;50.106;8.702;2022-10-13T04:38:54;12.40;99.90
11055;DHT22;5580;50.106;8.702;2022-10-13T04:41:21;12.40;99.90
11055;DHT22;5580;50.106;8.702;2022-10-13T04:43:48;12.40;99.90
11055;DHT22;5580;50.106;8.702;2022-10-13T04:46:17;12.40;99.90
11055;DHT22;5580;50.106;8.702;2022-10-13T04:48:43;12.40;99.90
11055;DHT22;5580;50.106;8.702;2022-10-13T04:51:12;12.40;99.90
11055;DHT22;5580;50.106;8.702;2022-10-13T04:53:38;12.40;99.90
11055;DHT22;5580;50.106;8.702;2022-10-13T04:56:06;12.40;99.90
11055;DHT22;5580;50.106;8.702;2022-10-13T04:58:36;12.30;99.90
11055;DHT22;5580;50.106;8.702;2022-10-13T05:01:03;12.30;99.90
11055;DHT22;5580;50.106;8.702;2022-10-13T05:03:29;12.30;99.90
11055;DHT22;5580;50.106;8.702;2022-10-13T05:05:55;12.30;99.90
11055;DHT22;5580;50.106;8.702;2022-10-13T05:08:21;12.30;99.90
11055;DHT22;5580;50.106;8.702;2022-10-13T05:11:00;12.20;99.90
11055;DHT22;5580;50.106;8.702;2022-10-13T05:13:27;12.20;99.90
11055;DHT22;5580;50.106;8.702;2022-10-13T05:15:53;12.20;99.90
11055;DHT22;5580;50.106;8.702;2022-10-13T05:18:19;12.20;99.90
11055;DHT22;5580;50.106;8.702;2022-10-13T05:20:45;12.20;99.90
11055;DHT22;5580;50.106;8.702;2022-10-13T05:23:11;12.20;99.90
11055;DHT22;5580;50.106;8.702;2022-10-13T05:25:37;12.20;99.90
11055;DHT22;5580;50.106;8.702;2022-10-13T05:28:04;12.10;99.90
11055;DHT22;5580;50.106;8.702;2022-10-13T05:30:30;12.10;99.90
11055;DHT22;5580;50.106;8.702;2022-10-13T05:32:56;12.10;99.90
11055;DHT22;5580;50.106;8.702;2022-10-13T05:35:23;12.10;99.90
11055;DHT22;5580;50.106;8.702;2022-10-13T05:37:48;12.10;99.90
11055;DHT22;5580;50.106;8.702;2022-10-13T05:40:14;12.10;99.90
11055;DHT22;5580;50.106;8.702;2022-10-13T05:42:40;12.10;99.90
11055;DHT22;5580;50.106;8.702;2022-10-13T05:45:08;12.10;99.90
11055;DHT22;5580;50.106;8.702;2022-10-13T05:47:34;12.20;99.90
11055;DHT22;5580;50.106;8.702;2022-10-13T05:52:42;12.10;99.90
11055;DHT22;5580;50.106;8.702;2022-10-13T05:55:09;12.10;99.90
11055;DHT22;5580;50.106;8.702;2022-10-13T05:57:40;12.10;99.90
11055;DHT22;5580;50.106;8.702;2022-10-13T06:00:13;12.10;99.90
11055;DHT22;5580;50.106;8.702;2022-10-13T06:02:46;12.10;99.90
11055;DHT22;5580;50.106;8.702;2022-10-13T06:05:16;12.10;99.90
11055;DHT22;5580;50.106;8.702;2022-10-13T06:07:43;12.10;99.90
11055;DHT22;5580;50.106;8.702;2022-10-13T06:10:09;12.10;99.90
11055;DHT22;5580;50.106;8.702;2022-10-13T06:12:36;12.00;99.90
11055;DHT22;5580;50.106;8.702;2022-10-13T06:15:02;12.10;99.90
11055;DHT22;5580;50.106;8.702;2022-10-13T06:17:27;12.00;99.90
11055;DHT22;5580;50.106;8.702;2022-10-13T06:19:53;12.10;99.90
11055;DHT22;5580;50.106;8.702;2022-10-13T06:22:18;12.10;99.90
11055;DHT22;5580;50.106;8.702;2022-10-13T06:24:46;12.10;99.90
11055;DHT22;5580;50.106;8.702;2022-10-13T06:27:11;12.10;99.90
11055;DHT22;5580;50.106;8.702;2022-10-13T06:29:37;12.10;99.90
11055;DHT22;5580;50.106;8.702;2022-10-13T06:32:03;12.00;99.90
11055;DHT22;5580;50.106;8.702;2022-10-13T06:34:29;12.00;99.90
11055;DHT22;5580;50.106;8.702;2022-10-13T06:36:54;12.00;99.90
11055;DHT22;5580;50.106;8.702;2022-10-13T06:39:20;12.00;99.90
11055;DHT22;5580;50.106;8.702;2022-10-13T06:41:45;12.10;99.90
11055;DHT22;5580;50.106;8.702;2022-10-13T06:44:11;12.00;99.90
11055;DHT22;5580;50.106;8.702;2022-10-13T06:46:36;12.10;99.90
11055;DHT22;5580;50.106;8.702;2022-10-13T06:49:02;12.10;99.90
11055;DHT22;5580;50.106;8.702;2022-10-13T06:51:27;12.10;99.90
11055;DHT22;5580;50.106;8.702;2022-10-13T06:53:55;12.10;99.90
11055;DHT22;5580;50.106;8.702;2022-10-13T06:56:21;12.10;99.90
11055;DHT22;5580;50.106;8.702;2022-10-13T06:58:47;12.20;99.90
11055;DHT22;5580;50.106;8.702;2022-10-13T07:01:13;12.10;99.90
11055;DHT22;5580;50.106;8.702;2022-10-13T07:03:39;12.10;99.90
11055;DHT22;5580;50.106;8.702;2022-10-13T07:06:06;12.20;99.90
11055;DHT22;5580;50.106;8.702;2022-10-13T07:08:33;12.20;99.90
11055;DHT22;5580;50.106;8.702;2022-10-13T07:11:04;12.20;99.90
11055;DHT22;5580;50.106;8.702;2022-10-13T07:13:30;12.30;99.90
11055;DHT22;5580;50.106;8.702;2022-10-13T07:15:56;12.30;99.90
11055;DHT22;5580;50.106;8.702;2022-10-13T07:18:21;12.30;99.90
11055;DHT22;5580;50.106;8.702;2022-10-13T07:20:47;12.30;99.90
11055;DHT22;5580;50.106;8.702;2022-10-13T07:23:12;12.30;99.90
11055;DHT22;5580;50.106;8.702;2022-10-13T07:25:38;12.30;99.90
11055;DHT22;5580;50.106;8.702;2022-10-13T07:28:04;12.30;99.90
11055;DHT22;5580;50.106;8.702;2022-10-13T07:30:30;12.30;99.90
11055;DHT22;5580;50.106;8.702;2022-10-13T07:32:55;12.30;99.90
11055;DHT22;5580;50.106;8.702;2022-10-13T07:35:21;12.30;99.90
11055;DHT22;5580;50.106;8.702;2022-10-13T07:37:51;12.30;99.90
11055;DHT22;5580;50.106;8.702;2022-10-13T07:40:17;12.30;99.90
11055;DHT22;5580;50.106;8.702;2022-10-13T07:42:42;12.30;99.90
11055;DHT22;5580;50.106;8.702;2022-10-13T07:45:08;12.40;99.90
11055;DHT22;5580;50.106;8.702;2022-10-13T07:47:34;12.50;99.90
11055;DHT22;5580;50.106;8.702;2022-10-13T07:49:59;12.50;99.90
11055;DHT22;5580;50.106;8.702;2022-10-13T07:52:25;12.50;99.90
11055;DHT22;5580;50.106;8.702;2022-10-13T07:54:51;12.60;99.90
11055;DHT22;5580;50.106;8.702;2022-10-13T07:57:17;12.60;99.90
11055;DHT22;5580;50.106;8.702;2022-10-13T07:59:42;12.60;99.90
11055;DHT22;5580;50.106;8.702;2022-10-13T08:02:08;12.50;99.90
11055;DHT22;5580;50.106;8.702;2022-10-13T08:04:34;12.50;99.90
11055;DHT22;5580;50.106;8.702;2022-10-13T08:07:00;12.50;99.90
11055;DHT22;5580;50.106;8.702;2022-10-13T08:09:26;12.50;99.90
11055;DHT22;5580;50.106;8.702;2022-10-13T08:11:52;12.60;99.90
11055;DHT22;5580;50.106;8.702;2022-10-13T08:14:18;12.60;99.90
11055;DHT22;5580;50.106;8.702;2022-10-13T08:16:47;12.70;99.90
11055;DHT22;5580;50.106;8.702;2022-10-13T08:19:14;12.70;99.90
11055;DHT22;5580;50.106;8.702;2022-10-13T08:21:40;12.80;99.90
11055;DHT22;5580;50.106;8.702;2022-10-13T08:24:09;12.80;99.90
11055;DHT22;5580;50.106;8.702;2022-10-13T08:26:35;12.90;99.90
11055;DHT22;5580;50.106;8.702;2022-10-13T08:29:00;12.90;99.90
11055;DHT22;5580;50.106;8.702;2022-10-13T08:31:26;13.00;99.90
11055;DHT22;5580;50.106;8.702;2022-10-13T08:33:52;13.00;99.90
11055;DHT22;5580;50.106;8.702;2022-10-13T08:36:18;13.00;99.90
11055;DHT22;5580;50.106;8.702;2022-10-13T08:38:44;13.10;99.90
11055;DHT22;5580;50.106;8.702;2022-10-13T08:41:14;13.00;99.90
11055;DHT22;5580;50.106;8.702;2022-10-13T08:43:44;13.10;99.90
11055;DHT22;5580;50.106;8.702;2022-10-13T08:46:11;13.10;99.90
11055;DHT22;5580;50.106;8.702;2022-10-13T08:48:40;13.10;99.90
11055;DHT22;5580;50.106;8.702;2022-10-13T08:51:06;13.20;99.90
11055;DHT22;5580;50.106;8.702;2022-10-13T08:53:34;13.20;99.90
11055;DHT22;5580;50.106;8.702;2022-10-13T08:56:09;13.20;99.90
11055;DHT22;5580;50.106;8.702;2022-10-13T08:58:40;13.20;99.90
11055;DHT22;5580;50.106;8.702;2022-10-13T09:01:24;13.20;99.90
11055;DHT22;5580;50.106;8.702;2022-10-13T09:06:31;13.10;99.90
11055;DHT22;5580;50.106;8.702;2022-10-13T09:09:05;13.20;99.90
11055;DHT22;5580;50.106;8.702;2022-10-13T09:11:41;13.20;99.90
11055;DHT22;5580;50.106;8.702;2022-10-13T09:14:19;13.20;99.90
11055;DHT22;5580;50.106;8.702;2022-10-13T09:16:46;13.20;99.90
11055;DHT22;5580;50.106;8.702;2022-10-13T09:19:33;13.20;99.90
11055;DHT22;5580;50.106;8.702;2022-10-13T09:22:35;13.30;99.90
11055;DHT22;5580;50.106;8.702;2022-10-13T09:32:54;13.30;99.90
11055;DHT22;5580;50.106;8.702;2022-10-13T09:35:23;13.20;99.90
11055;DHT22;5580;50.106;8.702;2022-10-13T09:40:28;13.30;99.90
11055;DHT22;5580;50.106;8.702;2022-10-13T09:42:57;13.30;99.90
11055;DHT22;5580;50.106;8.702;2022-10-13T09:45:25;13.30;99.90
11055;DHT22;5580;50.106;8.702;2022-10-13T09:48:02;13.30;99.90
11055;DHT22;5580;50.106;8.702;2022-10-13T09:50:30;13.40;99.90
11055;DHT22;5580;50.106;8.702;2022-10-13T09:55:42;13.40;99.90
11055;DHT22;5580;50.106;8.702;2022-10-13T09:58:30;13.30;99.90
11055;DHT22;5580;50.106;8.702;2022-10-13T10:00:58;13.40;99.90
11055;DHT22;5580;50.106;8.702;2022-10-13T10:03:36;13.30;99.90
11055;DHT22;5580;50.106;8.702;2022-10-13T10:06:05;13.30;99.90
11055;DHT22;5580;50.106;8.702;2022-10-13T10:08:48;13.30;99.90
11055;DHT22;5580;50.106;8.702;2022-10-13T10:11:39;13.30;99.90
11055;DHT22;5580;50.106;8.702;2022-10-13T10:14:24;13.40;99.90
11055;DHT22;5580;50.106;8.702;2022-10-13T10:28:38;13.40;99.90
11055;DHT22;5580;50.106;8.702;2022-10-13T10:36:56;13.50;99.90
11055;DHT22;5580;50.106;8.702;2022-10-13T10:44:58;13.40;99.90
11055;DHT22;5580;50.106;8.702;2022-10-13T10:47:38;13.40;99.90
11055;DHT22;5580;50.106;8.702;2022-10-13T10:50:07;13.50;99.90
11055;DHT22;5580;50.106;8.702;2022-10-13T10:53:06;13.50;99.90
11055;DHT22;5580;50.106;8.702;2022-10-13T10:56:05;13.50;99.90
11055;DHT22;5580;50.106;8.702;2022-10-13T11:02:12;13.60;99.90
11055;DHT22;5580;50.106;8.702;2022-10-13T11:17:45;13.80;99.90
11055;DHT22;5580;50.106;8.702;2022-10-13T11:25:36;13.90;99.90
11055;DHT22;5580;50.106;8.702;2022-10-13T11:30:51;13.90;99.90
11055;DHT22;5580;50.106;8.702;2022-10-13T11:39:18;14.10;99.90
11055;DHT22;5580;50.106;8.702;2022-10-13T11:58:26;14.30;99.90
11055;DHT22;5580;50.106;8.702;2022-10-13T12:01:09;14.40;99.90
11055;DHT22;5580;50.106;8.702;2022-10-13T12:03:42;14.40;99.90
11055;DHT22;5580;50.106;8.702;2022-10-13T12:06:32;14.40;99.90
11055;DHT22;5580;50.106;8.702;2022-10-13T12:09:25;14.40;99.90
11055;DHT22;5580;50.106;8.702;2022-10-13T12:12:15;14.50;99.90
11055;DHT22;5580;50.106;8.702;2022-10-13T12:14:44;14.50;99.90
11055;DHT22;5580;50.106;8.702;2022-10-13T12:17:32;14.60;99.90
11055;DHT22;5580;50.106;8.702;2022-10-13T12:20:20;14.60;99.90
11055;DHT22;5580;50.106;8.702;2022-10-13T12:22:49;14.60;99.90
11055;DHT22;5580;50.106;8.702;2022-10-13T12:25:17;14.60;99.90
11055;DHT22;5580;50.106;8.702;2022-10-13T12:27:48;14.60;99.90
11055;DHT22;5580;50.106;8.702;2022-10-13T12:30:32;14.60;99.90
11055;DHT22;5580;50.106;8.702;2022-10-13T12:33:02;14.60;99.90
11055;DHT22;5580;50.106;8.702;2022-10-13T12:35:31;14.70;99.90
11055;DHT22;5580;50.106;8.702;2022-10-13T12:38:00;14.70;99.90
11055;DHT22;5580;50.106;8.702;2022-10-13T12:40:26;14.70;99.90
11055;DHT22;5580;50.106;8.702;2022-10-13T12:42:53;14.70;99.90
11055;DHT22;5580;50.106;8.702;2022-10-13T12:45:22;14.70;99.90
11055;DHT22;5580;50.106;8.702;2022-10-13T12:47:52;14.70;99.90
11055;DHT22;5580;50.106;8.702;2022-10-13T12:53:16;14.70;99.90
11055;DHT22;5580;50.106;8.702;2022-10-13T12:55:49;14.80;99.90
11055;DHT22;5580;50.106;8.702;2022-10-13T12:58:31;14.80;99.90
11055;DHT22;5580;50.106;8.702;2022-10-13T13:03:42;14.80;99.90
11055;DHT22;5580;50.106;8.702;2022-10-13T13:08:34;14.80;99.90
11055;DHT22;5580;50.106;8.702;2022-10-13T13:11:06;14.80;99.90
11055;DHT22;5580;50.106;8.702;2022-10-13T13:13:32;14.90;99.90
11055;DHT22;5580;50.106;8.702;2022-10-13T13:18:40;14.90;99.90
11055;DHT22;5580;50.106;8.702;2022-10-13T13:21:09;14.80;99.90
11055;DHT22;5580;50.106;8.702;2022-10-13T13:23:35;14.90;99.90
11055;DHT22;5580;50.106;8.702;2022-10-13T13:26:12;14.90;99.90
11055;DHT22;5580;50.106;8.702;2022-10-13T13:28:46;14.90;99.90
11055;DHT22;5580;50.106;8.702;2022-10-13T13:31:12;14.90;99.90
11055;DHT22;5580;50.106;8.702;2022-10-13T13:33:38;14.90;99.90
11055;DHT22;5580;50.106;8.702;2022-10-13T13:36:10;14.90;99.90
11055;DHT22;5580;50.106;8.702;2022-10-13T13:38:37;15.00;99.90
11055;DHT22;5580;50.106;8.702;2022-10-13T13:41:03;15.00;99.90
11055;DHT22;5580;50.106;8.702;2022-10-13T13:43:29;15.00;99.90
11055;DHT22;5580;50.106;8.702;2022-10-13T13:45:54;15.10;99.90
11055;DHT22;5580;50.106;8.702;2022-10-13T13:48:20;15.00;99.90
11055;DHT22;5580;50.106;8.702;2022-10-13T13:50:45;15.10;99.90
11055;DHT22;5580;50.106;8.702;2022-10-13T13:53:11;15.00;99.90
11055;DHT22;5580;50.106;8.702;2022-10-13T13:55:37;15.00;99.90
11055;DHT22;5580;50.106;8.702;2022-10-13T13:58:02;15.10;99.90
11055;DHT22;5580;50.106;8.702;2022-10-13T14:00:28;15.10;99.90
11055;DHT22;5580;50.106;8.702;2022-10-13T14:02:55;15.10;99.90
11055;DHT22;5580;50.106;8.702;2022-10-13T14:05:20;15.10;99.90
11055;DHT22;5580;50.106;8.702;2022-10-13T14:07:46;15.10;99.90
11055;DHT22;5580;50.106;8.702;2022-10-13T14:10:12;15.10;99.90
11055;DHT22;5580;50.106;8.702;2022-10-13T14:12:38;15.10;99.90
11055;DHT22;5580;50.106;8.702;2022-10-13T14:15:04;15.10;99.90
11055;DHT22;5580;50.106;8.702;2022-10-13T14:17:30;15.20;99.90
11055;DHT22;5580;50.106;8.702;2022-10-13T14:19:55;15.10;99.90
11055;DHT22;5580;50.106;8.702;2022-10-13T14:22:21;15.20;99.90
11055;DHT22;5580;50.106;8.702;2022-10-13T14:24:47;15.10;99.90
11055;DHT22;5580;50.106;8.702;2022-10-13T14:27:12;15.20;99.90
11055;DHT22;5580;50.106;8.702;2022-10-13T14:29:38;15.20;99.90
11055;DHT22;5580;50.106;8.702;2022-10-13T14:32:04;15.20;99.90
11055;DHT22;5580;50.106;8.702;2022-10-13T14:34:30;15.20;99.90
11055;DHT22;5580;50.106;8.702;2022-10-13T14:36:57;15.30;99.90
11055;DHT22;5580;50.106;8.702;2022-10-13T14:39:23;15.20;99.90
11055;DHT22;5580;50.106;8.702;2022-10-13T14:41:48;15.20;99.90
11055;DHT22;5580;50.106;8.702;2022-10-13T14:44:14;15.20;99.90
11055;DHT22;5580;50.106;8.702;2022-10-13T14:46:40;15.20;99.90
11055;DHT22;5580;50.106;8.702;2022-10-13T14:49:05;15.30;99.90
11055;DHT22;5580;50.106;8.702;2022-10-13T14:51:31;15.20;99.90
11055;DHT22;5580;50.106;8.702;2022-10-13T14:53:57;15.30;99.90
11055;DHT22;5580;50.106;8.702;2022-10-13T14:56:27;15.20;99.90
11055;DHT22;5580;50.106;8.702;2022-10-13T14:58:58;15.30;99.90
11055;DHT22;5580;50.106;8.702;2022-10-13T15:01:23;15.30;99.90
11055;DHT22;5580;50.106;8.702;2022-10-13T15:03:49;15.30;99.90
11055;DHT22;5580;50.106;8.702;2022-10-13T15:06:17;15.30;99.90
11055;DHT22;5580;50.106;8.702;2022-10-13T15:08:44;15.30;99.90
11055;DHT22;5580;50.106;8.702;2022-10-13T15:11:10;15.30;99.90
11055;DHT22;5580;50.106;8.702;2022-10-13T15:13:36;15.30;99.90
11055;DHT22;5580;50.106;8.702;2022-10-13T15:16:02;15.30;99.90
11055;DHT22;5580;50.106;8.702;2022-10-13T15:18:30;15.30;99.90
11055;DHT22;5580;50.106;8.702;2022-10-13T15:20:56;15.30;99.90
11055;DHT22;5580;50.106;8.702;2022-10-13T15:23:22;15.30;99.90
11055;DHT22;5580;50.106;8.702;2022-10-13T15:25:59;15.30;99.90
11055;DHT22;5580;50.106;8.702;2022-10-13T15:28:29;15.40;99.90
11055;DHT22;5580;50.106;8.702;2022-10-13T15:30:58;15.30;99.90
11055;DHT22;5580;50.106;8.702;2022-10-13T15:33:23;15.30;99.90
11055;DHT22;5580;50.106;8.702;2022-10-13T15:35:50;15.40;99.90
11055;DHT22;5580;50.106;8.702;2022-10-13T15:38:17;15.30;99.90
11055;DHT22;5580;50.106;8.702;2022-10-13T15:40:43;15.30;99.90
11055;DHT22;5580;50.106;8.702;2022-10-13T15:43:08;15.30;99.90
11055;DHT22;5580;50.106;8.702;2022-10-13T15:45:34;15.30;99.90
11055;DHT22;5580;50.106;8.702;2022-10-13T15:48:00;15.30;99.90
11055;DHT22;5580;50.106;8.702;2022-10-13T15:50:27;15.30;99.90
11055;DHT22;5580;50.106;8.702;2022-10-13T15:52:53;15.30;99.90
11055;DHT22;5580;50.106;8.702;2022-10-13T15:55:18;15.30;99.90
11055;DHT22;5580;50.106;8.702;2022-10-13T15:57:44;15.30;99.90
11055;DHT22;5580;50.106;8.702;2022-10-13T16:00:12;15.40;99.90
11055;DHT22;5580;50.106;8.702;2022-10-13T16:02:38;15.40;99.90
11055;DHT22;5580;50.106;8.702;2022-10-13T16:05:06;15.30;99.90
11055;DHT22;5580;50.106;8.702;2022-10-13T16:07:33;15.30;99.90
11055;DHT22;5580;50.106;8.702;2022-10-13T16:09:59;15.30;99.90
11055;DHT22;5580;50.106;8.702;2022-10-13T16:12:27;15.40;99.90
11055;DHT22;5580;50.106;8.702;2022-10-13T16:14:53;15.30;99.90
11055;DHT22;5580;50.106;8.702;2022-10-13T16:17:18;15.30;99.90
11055;DHT22;5580;50.106;8.702;2022-10-13T16:19:44;15.30;99.90
11055;DHT22;5580;50.106;8.702;2022-10-13T16:22:10;15.30;99.90
11055;DHT22;5580;50.106;8.702;2022-10-13T16:24:35;15.30;99.90
11055;DHT22;5580;50.106;8.702;2022-10-13T16:27:01;15.30;99.90
11055;DHT22;5580;50.106;8.702;2022-10-13T16:29:27;15.30;99.90
11055;DHT22;5580;50.106;8.702;2022-10-13T16:31:52;15.30;99.90
11055;DHT22;5580;50.106;8.702;2022-10-13T16:34:18;15.30;99.90
11055;DHT22;5580;50.106;8.702;2022-10-13T16:36:44;15.30;99.90
11055;DHT22;5580;50.106;8.702;2022-10-13T16:39:09;15.30;99.90
11055;DHT22;5580;50.106;8.702;2022-10-13T16:41:35;15.30;99.90
11055;DHT22;5580;50.106;8.702;2022-10-13T16:44:01;15.30;99.90
11055;DHT22;5580;50.106;8.702;2022-10-13T16:46:27;15.30;99.90
11055;DHT22;5580;50.106;8.702;2022-10-13T16:48:52;15.20;99.90
11055;DHT22;5580;50.106;8.702;2022-10-13T16:51:21;15.30;99.90
11055;DHT22;5580;50.106;8.702;2022-10-13T16:53:52;15.20;99.90
11055;DHT22;5580;50.106;8.702;2022-10-13T16:56:18;15.30;99.90
11055;DHT22;5580;50.106;8.702;2022-10-13T16:58:47;15.30;99.90
11055;DHT22;5580;50.106;8.702;2022-10-13T17:01:13;15.30;99.90
11055;DHT22;5580;50.106;8.702;2022-10-13T17:03:42;15.30;99.90
11055;DHT22;5580;50.106;8.702;2022-10-13T17:06:08;15.20;99.90
11055;DHT22;5580;50.106;8.702;2022-10-13T17:08:34;15.30;99.90
11055;DHT22;5580;50.106;8.702;2022-10-13T17:11:01;15.30;99.90
11055;DHT22;5580;50.106;8.702;2022-10-13T17:13:27;15.20;99.90
11055;DHT22;5580;50.106;8.702;2022-10-13T17:15:54;15.30;99.90
11055;DHT22;5580;50.106;8.702;2022-10-13T17:18:20;15.30;99.90
11055;DHT22;5580;50.106;8.702;2022-10-13T17:20:55;15.20;99.90
11055;DHT22;5580;50.106;8.702;2022-10-13T17:23:22;15.20;99.90
11055;DHT22;5580;50.106;8.702;2022-10-13T17:25:49;15.20;99.90
11055;DHT22;5580;50.106;8.702;2022-10-13T17:28:15;15.30;99.90
11055;DHT22;5580;50.106;8.702;2022-10-13T17:30:41;15.30;99.90
11055;DHT22;5580;50.106;8.702;2022-10-13T17:33:07;15.20;99.90
11055;DHT22;5580;50.106;8.702;2022-10-13T17:35:33;15.20;99.90
11055;DHT22;5580;50.106;8.702;2022-10-13T17:37:59;15.20;99.90
11055;DHT22;5580;50.106;8.702;2022-10-13T17:40:25;15.20;99.90
11055;DHT22;5580;50.106;8.702;2022-10-13T17:42:51;15.20;99.90
11055;DHT22;5580;50.106;8.702;2022-10-13T17:45:16;15.20;99.90
11055;DHT22;5580;50.106;8.702;2022-10-13T17:47:49;15.20;99.90
11055;DHT22;5580;50.106;8.702;2022-10-13T17:50:15;15.20;99.90
11055;DHT22;5580;50.106;8.702;2022-10-13T17:52:41;15.10;99.90
11055;DHT22;5580;50.106;8.702;2022-10-13T17:55:07;15.10;99.90
11055;DHT22;5580;50.106;8.702;2022-10-13T17:57:33;15.10;99.90
11055;DHT22;5580;50.106;8.702;2022-10-13T17:59:59;15.10;99.90
11055;DHT22;5580;50.106;8.702;2022-10-13T18:02:24;15.10;99.90